SSG04A EBAW-LQSA
Flight info
| Callsign | SSG04A |
|---|---|
| Flight time | 1h 47m |
| Altitude | 39000 |
| Route | GILOM M624 REMBA DCT LIRSU DCT SUNEG DCT ETAGO DCT ERKIR DCT BOSNA |
| Aircraft | A319/M-SDE3FGHIRWY/LB1 |
Departure
| Time | 2026-04-30 19:48 |
|---|---|
| Airport | Antwerp International Airport (Deurne) (EBAW) |
Arrival
| Time | 2026-04-30 21:35 |
|---|---|
| Airport | Sarajevo International Airport (LQSA) |
| Time | Latitude | Longitude | Altitude | Speed | Heading |
|---|---|---|---|---|---|
| 2026-04-30 19:32 | 51.18858 | 4.45391 | 38 ft | 0 kts | 326° |
| 2026-04-30 19:44 | 51.18860 | 4.45389 | 9 ft | 1 kts | 326° |
| 2026-04-30 19:44 | 51.18872 | 4.45380 | 36 ft | 3 kts | 340° |
| 2026-04-30 19:44 | 51.18901 | 4.45381 | 37 ft | 7 kts | 1° |
| 2026-04-30 19:45 | 51.18971 | 4.45440 | 37 ft | 15 kts | 51° |
| 2026-04-30 19:45 | 51.19060 | 4.45483 | 36 ft | 10 kts | 325° |
| 2026-04-30 19:45 | 51.19102 | 4.45428 | 37 ft | 8 kts | 321° |
| 2026-04-30 19:45 | 51.19151 | 4.45366 | 37 ft | 10 kts | 322° |
| 2026-04-30 19:46 | 51.19208 | 4.45352 | 35 ft | 9 kts | 69° |
| 2026-04-30 19:46 | 51.19202 | 4.45410 | 35 ft | 0 kts | 110° |
| 2026-04-30 19:47 | 51.19197 | 4.45432 | 36 ft | 8 kts | 109° |
| 2026-04-30 19:47 | 51.19077 | 4.45961 | 38 ft | 98 kts | 110° |
| 2026-04-30 19:48 | 51.18767 | 4.47249 | 516 ft | 122 kts | 111° |
| 2026-04-30 19:48 | 51.18478 | 4.48379 | 1635 ft | 99 kts | 112° |
| 2026-04-30 19:48 | 51.18237 | 4.49469 | 2289 ft | 114 kts | 108° |
| 2026-04-30 19:48 | 51.18002 | 4.50776 | 2727 ft | 133 kts | 108° |
| 2026-04-30 19:49 | 51.17727 | 4.52313 | 3125 ft | 155 kts | 109° |
| 2026-04-30 19:49 | 51.17049 | 4.56038 | 3857 ft | 203 kts | 109° |
| 2026-04-30 19:49 | 51.16631 | 4.58329 | 4365 ft | 228 kts | 109° |
| 2026-04-30 19:50 | 51.16199 | 4.60697 | 5055 ft | 243 kts | 109° |
| 2026-04-30 19:50 | 51.15720 | 4.63332 | 5975 ft | 251 kts | 108° |
| 2026-04-30 19:50 | 51.15228 | 4.66027 | 6958 ft | 256 kts | 108° |
| 2026-04-30 19:50 | 51.14722 | 4.68767 | 7914 ft | 260 kts | 108° |
| 2026-04-30 19:51 | 51.14204 | 4.71552 | 8871 ft | 265 kts | 107° |
| 2026-04-30 19:51 | 51.13675 | 4.74388 | 9836 ft | 269 kts | 107° |
| 2026-04-30 19:51 | 51.13120 | 4.77307 | 10638 ft | 280 kts | 110° |
| 2026-04-30 19:51 | 51.12072 | 4.80059 | 10960 ft | 305 kts | 132° |
| 2026-04-30 19:52 | 51.10317 | 4.82127 | 11424 ft | 324 kts | 152° |
| 2026-04-30 19:52 | 51.08130 | 4.83172 | 12183 ft | 335 kts | 171° |
| 2026-04-30 19:52 | 51.05769 | 4.83078 | 12977 ft | 344 kts | 184° |
| 2026-04-30 19:52 | 51.03381 | 4.82650 | 13788 ft | 348 kts | 184° |
| 2026-04-30 19:53 | 51.00962 | 4.82201 | 14527 ft | 352 kts | 184° |
| 2026-04-30 19:53 | 50.98512 | 4.81741 | 15249 ft | 356 kts | 184° |
| 2026-04-30 19:53 | 50.96039 | 4.81282 | 15970 ft | 360 kts | 184° |
| 2026-04-30 19:53 | 50.93537 | 4.80820 | 16697 ft | 363 kts | 184° |
| 2026-04-30 19:54 | 50.91018 | 4.80352 | 17414 ft | 367 kts | 184° |
| 2026-04-30 19:54 | 50.88467 | 4.79878 | 18135 ft | 371 kts | 184° |
| 2026-04-30 19:54 | 50.85893 | 4.79399 | 18810 ft | 374 kts | 184° |
| 2026-04-30 19:54 | 50.83295 | 4.78915 | 19422 ft | 378 kts | 184° |
| 2026-04-30 19:55 | 50.80666 | 4.78449 | 20039 ft | 381 kts | 181° |
| 2026-04-30 19:55 | 50.78024 | 4.78570 | 20642 ft | 382 kts | 169° |
| 2026-04-30 19:55 | 50.75446 | 4.79576 | 21257 ft | 382 kts | 158° |
| 2026-04-30 19:55 | 50.73060 | 4.81422 | 21870 ft | 383 kts | 146° |
| 2026-04-30 19:56 | 50.70967 | 4.84016 | 22471 ft | 384 kts | 134° |
| 2026-04-30 19:56 | 50.69058 | 4.87000 | 23063 ft | 388 kts | 134° |
| 2026-04-30 19:56 | 50.67182 | 4.90073 | 23637 ft | 390 kts | 128° |
| 2026-04-30 19:56 | 50.65623 | 4.93585 | 24148 ft | 392 kts | 118° |
| 2026-04-30 19:57 | 50.64414 | 4.97447 | 24627 ft | 395 kts | 114° |
| 2026-04-30 19:57 | 50.63239 | 5.01375 | 25100 ft | 398 kts | 115° |
| 2026-04-30 19:57 | 50.62052 | 5.05318 | 25566 ft | 400 kts | 115° |
| 2026-04-30 19:57 | 50.60853 | 5.09293 | 26022 ft | 403 kts | 115° |
| 2026-04-30 19:58 | 50.59646 | 5.13287 | 26477 ft | 405 kts | 115° |
| 2026-04-30 19:58 | 50.58412 | 5.17359 | 26945 ft | 408 kts | 115° |
| 2026-04-30 19:58 | 50.57188 | 5.21388 | 27405 ft | 411 kts | 115° |
| 2026-04-30 19:58 | 50.55952 | 5.25457 | 27848 ft | 413 kts | 115° |
| 2026-04-30 19:59 | 50.54708 | 5.29552 | 28291 ft | 416 kts | 115° |
| 2026-04-30 19:59 | 50.53458 | 5.33664 | 28727 ft | 419 kts | 115° |
| 2026-04-30 19:59 | 50.50918 | 5.41977 | 29565 ft | 424 kts | 115° |
| 2026-04-30 20:00 | 50.49636 | 5.46162 | 29969 ft | 427 kts | 115° |
| 2026-04-30 20:00 | 50.48345 | 5.50378 | 30354 ft | 430 kts | 115° |
| 2026-04-30 20:00 | 50.47047 | 5.54613 | 30681 ft | 432 kts | 115° |
| 2026-04-30 20:00 | 50.45737 | 5.58876 | 31003 ft | 435 kts | 115° |
| 2026-04-30 20:01 | 50.43092 | 5.67460 | 31631 ft | 439 kts | 115° |
| 2026-04-30 20:01 | 50.41762 | 5.71770 | 32047 ft | 439 kts | 115° |
| 2026-04-30 20:01 | 50.40436 | 5.76065 | 32497 ft | 438 kts | 115° |
| 2026-04-30 20:02 | 50.37775 | 5.84647 | 33417 ft | 436 kts | 115° |
| 2026-04-30 20:02 | 50.36446 | 5.88917 | 33883 ft | 435 kts | 115° |
| 2026-04-30 20:03 | 50.33790 | 5.97419 | 34731 ft | 434 kts | 115° |
| 2026-04-30 20:03 | 50.32461 | 6.01661 | 35136 ft | 434 kts | 115° |
| 2026-04-30 20:03 | 50.31133 | 6.05894 | 35529 ft | 433 kts | 115° |
| 2026-04-30 20:03 | 50.29809 | 6.10110 | 35908 ft | 432 kts | 115° |
| 2026-04-30 20:04 | 50.28483 | 6.14328 | 36280 ft | 432 kts | 115° |
| 2026-04-30 20:04 | 50.27138 | 6.18596 | 36646 ft | 431 kts | 115° |
| 2026-04-30 20:04 | 50.25815 | 6.22790 | 36986 ft | 431 kts | 115° |
| 2026-04-30 20:05 | 50.23164 | 6.31176 | 37633 ft | 430 kts | 115° |
| 2026-04-30 20:05 | 50.21839 | 6.35356 | 37960 ft | 430 kts | 115° |
| 2026-04-30 20:05 | 50.19185 | 6.43678 | 38598 ft | 429 kts | 115° |
| 2026-04-30 20:06 | 50.17780 | 6.47834 | 38905 ft | 429 kts | 117° |
| 2026-04-30 20:06 | 50.16283 | 6.51863 | 39145 ft | 430 kts | 119° |
| 2026-04-30 20:06 | 50.14709 | 6.55837 | 39279 ft | 432 kts | 120° |
| 2026-04-30 20:06 | 50.13095 | 6.59789 | 39310 ft | 432 kts | 121° |
| 2026-04-30 20:07 | 50.10410 | 6.66346 | 39309 ft | 432 kts | 120° |
| 2026-04-30 20:08 | 50.05661 | 6.78278 | 39313 ft | 432 kts | 119° |
| 2026-04-30 20:08 | 50.02587 | 6.86088 | 39312 ft | 432 kts | 119° |
| 2026-04-30 20:09 | 49.99415 | 6.94102 | 39318 ft | 433 kts | 120° |
| 2026-04-30 20:09 | 49.94645 | 7.06016 | 39337 ft | 433 kts | 120° |
| 2026-04-30 20:10 | 49.89858 | 7.17912 | 39344 ft | 433 kts | 120° |
| 2026-04-30 20:11 | 49.85070 | 7.29808 | 39345 ft | 434 kts | 119° |
| 2026-04-30 20:11 | 49.81869 | 7.37725 | 39351 ft | 433 kts | 120° |
| 2026-04-30 20:12 | 49.77066 | 7.49529 | 39353 ft | 433 kts | 119° |
| 2026-04-30 20:13 | 49.73849 | 7.57407 | 39357 ft | 433 kts | 119° |
| 2026-04-30 20:13 | 49.70629 | 7.65276 | 39348 ft | 433 kts | 119° |
| 2026-04-30 20:14 | 49.67564 | 7.72764 | 39347 ft | 433 kts | 119° |
| 2026-04-30 20:14 | 49.64338 | 7.80622 | 39344 ft | 433 kts | 119° |
| 2026-04-30 20:15 | 49.61102 | 7.88471 | 39339 ft | 434 kts | 119° |
| 2026-04-30 20:15 | 49.57844 | 7.96315 | 39341 ft | 435 kts | 119° |
| 2026-04-30 20:16 | 49.54556 | 8.04219 | 39347 ft | 435 kts | 119° |
| 2026-04-30 20:16 | 49.51301 | 8.12060 | 39362 ft | 435 kts | 119° |
| 2026-04-30 20:17 | 49.48029 | 8.19894 | 39365 ft | 435 kts | 119° |
| 2026-04-30 20:17 | 49.44752 | 8.27713 | 39370 ft | 435 kts | 119° |
| 2026-04-30 20:18 | 49.41477 | 8.35510 | 39376 ft | 434 kts | 119° |
| 2026-04-30 20:18 | 49.38201 | 8.43298 | 39379 ft | 434 kts | 119° |
| 2026-04-30 20:19 | 49.35048 | 8.50763 | 39377 ft | 434 kts | 119° |
| 2026-04-30 20:19 | 49.31754 | 8.58515 | 39374 ft | 433 kts | 119° |
| 2026-04-30 20:20 | 49.28457 | 8.66251 | 39366 ft | 434 kts | 119° |
| 2026-04-30 20:20 | 49.25201 | 8.73909 | 39363 ft | 434 kts | 118° |
| 2026-04-30 20:21 | 49.21893 | 8.81649 | 39356 ft | 434 kts | 118° |
| 2026-04-30 20:21 | 49.18091 | 8.88664 | 39351 ft | 443 kts | 134° |
| 2026-04-30 20:22 | 49.13346 | 8.94731 | 39347 ft | 445 kts | 135° |
| 2026-04-30 20:22 | 49.08613 | 9.00777 | 39342 ft | 446 kts | 135° |
| 2026-04-30 20:23 | 49.03813 | 9.06878 | 39344 ft | 446 kts | 135° |
| 2026-04-30 20:23 | 48.99040 | 9.12933 | 39340 ft | 447 kts | 135° |
| 2026-04-30 20:24 | 48.94320 | 9.18906 | 39341 ft | 447 kts | 135° |
| 2026-04-30 20:24 | 48.89468 | 9.25029 | 39343 ft | 448 kts | 135° |
| 2026-04-30 20:25 | 48.82263 | 9.34084 | 39336 ft | 448 kts | 135° |
| 2026-04-30 20:26 | 48.75043 | 9.43127 | 39339 ft | 449 kts | 135° |
| 2026-04-30 20:26 | 48.70938 | 9.50042 | 39337 ft | 437 kts | 118° |
| 2026-04-30 20:26 | 48.69238 | 9.53871 | 39333 ft | 438 kts | 118° |
| 2026-04-30 20:27 | 48.62455 | 9.69018 | 39336 ft | 439 kts | 118° |
| 2026-04-30 20:28 | 48.55576 | 9.84300 | 39347 ft | 440 kts | 118° |
| 2026-04-30 20:30 | 48.46902 | 10.03440 | 39352 ft | 441 kts | 118° |
| 2026-04-30 20:31 | 48.42400 | 10.13318 | 39353 ft | 442 kts | 118° |
| 2026-04-30 20:32 | 48.33897 | 10.31883 | 39353 ft | 443 kts | 118° |
| 2026-04-30 20:33 | 48.28633 | 10.43295 | 39355 ft | 443 kts | 118° |
| 2026-04-30 20:34 | 48.23368 | 10.54714 | 39356 ft | 444 kts | 118° |
| 2026-04-30 20:35 | 48.18067 | 10.66118 | 39355 ft | 445 kts | 118° |
| 2026-04-30 20:35 | 48.12742 | 10.77520 | 39356 ft | 446 kts | 118° |
| 2026-04-30 20:36 | 48.09185 | 10.85130 | 39353 ft | 446 kts | 118° |
| 2026-04-30 20:37 | 48.03913 | 10.96355 | 39353 ft | 448 kts | 119° |
| 2026-04-30 20:37 | 48.00326 | 11.03967 | 39356 ft | 448 kts | 119° |
| 2026-04-30 20:38 | 47.96732 | 11.11583 | 39349 ft | 449 kts | 119° |
| 2026-04-30 20:38 | 47.93126 | 11.19199 | 39354 ft | 450 kts | 119° |
| 2026-04-30 20:39 | 47.87692 | 11.30628 | 39356 ft | 451 kts | 119° |
| 2026-04-30 20:40 | 47.82839 | 11.40772 | 39359 ft | 452 kts | 119° |
| 2026-04-30 20:40 | 47.79190 | 11.48404 | 39365 ft | 453 kts | 119° |
| 2026-04-30 20:41 | 47.73701 | 11.59842 | 39369 ft | 454 kts | 120° |
| 2026-04-30 20:41 | 47.69997 | 11.67507 | 39375 ft | 454 kts | 120° |
| 2026-04-30 20:42 | 47.66309 | 11.75122 | 39380 ft | 454 kts | 120° |
| 2026-04-30 20:43 | 47.60772 | 11.86524 | 39379 ft | 454 kts | 120° |
| 2026-04-30 20:43 | 47.57075 | 11.94117 | 39376 ft | 454 kts | 120° |
| 2026-04-30 20:44 | 47.51513 | 12.05464 | 39374 ft | 455 kts | 120° |
| 2026-04-30 20:45 | 47.44008 | 12.20522 | 39378 ft | 455 kts | 121° |
| 2026-04-30 20:45 | 47.40247 | 12.28032 | 39370 ft | 455 kts | 121° |
| 2026-04-30 20:46 | 47.32722 | 12.43019 | 39368 ft | 454 kts | 121° |
| 2026-04-30 20:47 | 47.27224 | 12.53928 | 39366 ft | 454 kts | 121° |
| 2026-04-30 20:48 | 47.22210 | 12.63856 | 39360 ft | 455 kts | 122° |
| 2026-04-30 20:48 | 47.18425 | 12.71308 | 39361 ft | 455 kts | 122° |
| 2026-04-30 20:49 | 47.14601 | 12.78802 | 39353 ft | 455 kts | 122° |
| 2026-04-30 20:50 | 47.08907 | 12.89938 | 39354 ft | 455 kts | 122° |
| 2026-04-30 20:50 | 47.05105 | 12.97363 | 39352 ft | 456 kts | 122° |
| 2026-04-30 20:51 | 47.01289 | 13.04786 | 39352 ft | 456 kts | 123° |
| 2026-04-30 20:51 | 46.95543 | 13.15908 | 39354 ft | 457 kts | 123° |
| 2026-04-30 20:52 | 46.91706 | 13.23316 | 39358 ft | 457 kts | 123° |
| 2026-04-30 20:53 | 46.85928 | 13.34450 | 39373 ft | 459 kts | 123° |
| 2026-04-30 20:53 | 46.82065 | 13.41886 | 39378 ft | 460 kts | 123° |
| 2026-04-30 20:54 | 46.76231 | 13.53020 | 39389 ft | 461 kts | 124° |
| 2026-04-30 20:55 | 46.70379 | 13.64161 | 39393 ft | 462 kts | 124° |
| 2026-04-30 20:55 | 46.66472 | 13.71595 | 39396 ft | 462 kts | 124° |
| 2026-04-30 20:56 | 46.60595 | 13.82731 | 39401 ft | 463 kts | 124° |
| 2026-04-30 20:57 | 46.54667 | 13.93901 | 39406 ft | 464 kts | 124° |
| 2026-04-30 20:57 | 46.50723 | 14.01310 | 39406 ft | 464 kts | 124° |
| 2026-04-30 20:58 | 46.45025 | 14.11982 | 39404 ft | 465 kts | 124° |
| 2026-04-30 20:58 | 46.41055 | 14.19389 | 39406 ft | 465 kts | 125° |
| 2026-04-30 20:59 | 46.35081 | 14.30478 | 39402 ft | 466 kts | 125° |
| 2026-04-30 21:00 | 46.27279 | 14.44945 | 39395 ft | 467 kts | 125° |
| 2026-04-30 21:01 | 46.21267 | 14.56025 | 39400 ft | 468 kts | 126° |
| 2026-04-30 21:02 | 46.15232 | 14.67104 | 39401 ft | 469 kts | 126° |
| 2026-04-30 21:02 | 46.11193 | 14.74489 | 39403 ft | 470 kts | 126° |
| 2026-04-30 21:03 | 46.07145 | 14.81889 | 39414 ft | 470 kts | 126° |
| 2026-04-30 21:03 | 46.03089 | 14.89285 | 39418 ft | 471 kts | 126° |
| 2026-04-30 21:04 | 45.99009 | 14.96677 | 39416 ft | 472 kts | 126° |
| 2026-04-30 21:04 | 45.92878 | 15.07757 | 39418 ft | 472 kts | 126° |
| 2026-04-30 21:05 | 45.88783 | 15.15136 | 39421 ft | 472 kts | 126° |
| 2026-04-30 21:05 | 45.84660 | 15.22565 | 39422 ft | 473 kts | 126° |
| 2026-04-30 21:06 | 45.80555 | 15.29943 | 39425 ft | 474 kts | 126° |
| 2026-04-30 21:06 | 45.76435 | 15.37317 | 39424 ft | 474 kts | 127° |
| 2026-04-30 21:07 | 45.72305 | 15.44684 | 39421 ft | 475 kts | 127° |
| 2026-04-30 21:07 | 45.68160 | 15.52049 | 39409 ft | 475 kts | 127° |
| 2026-04-30 21:08 | 45.64006 | 15.59407 | 39410 ft | 476 kts | 127° |
| 2026-04-30 21:08 | 45.59857 | 15.66769 | 39414 ft | 476 kts | 127° |
| 2026-04-30 21:09 | 45.55701 | 15.74126 | 39407 ft | 476 kts | 127° |
| 2026-04-30 21:09 | 45.51531 | 15.81466 | 39407 ft | 477 kts | 127° |
| 2026-04-30 21:10 | 45.47342 | 15.88801 | 39408 ft | 477 kts | 127° |
| 2026-04-30 21:10 | 45.43156 | 15.96131 | 39405 ft | 477 kts | 127° |
| 2026-04-30 21:11 | 45.38964 | 16.03461 | 39396 ft | 478 kts | 127° |
| 2026-04-30 21:11 | 45.34766 | 16.10792 | 39396 ft | 478 kts | 127° |
| 2026-04-30 21:12 | 45.30563 | 16.18109 | 39388 ft | 478 kts | 128° |
| 2026-04-30 21:12 | 45.26344 | 16.25426 | 39397 ft | 479 kts | 128° |
| 2026-04-30 21:13 | 45.22798 | 16.31544 | 39397 ft | 479 kts | 128° |
| 2026-04-30 21:13 | 45.18666 | 16.38667 | 39395 ft | 479 kts | 128° |
| 2026-04-30 21:14 | 45.14806 | 16.45314 | 39392 ft | 479 kts | 128° |
| 2026-04-30 21:14 | 45.10564 | 16.52609 | 39392 ft | 480 kts | 128° |
| 2026-04-30 21:15 | 45.06311 | 16.59893 | 39325 ft | 481 kts | 128° |
| 2026-04-30 21:15 | 45.04176 | 16.63536 | 39074 ft | 480 kts | 128° |
| 2026-04-30 21:15 | 45.02037 | 16.67183 | 38219 ft | 484 kts | 128° |
| 2026-04-30 21:16 | 44.99890 | 16.70844 | 37507 ft | 484 kts | 128° |
| 2026-04-30 21:16 | 44.97768 | 16.74461 | 37307 ft | 472 kts | 128° |
| 2026-04-30 21:16 | 44.95695 | 16.77986 | 37025 ft | 463 kts | 128° |
| 2026-04-30 21:16 | 44.93648 | 16.81471 | 36544 ft | 459 kts | 128° |
| 2026-04-30 21:17 | 44.91612 | 16.84937 | 35990 ft | 457 kts | 128° |
| 2026-04-30 21:17 | 44.89585 | 16.88382 | 35412 ft | 456 kts | 128° |
| 2026-04-30 21:17 | 44.87555 | 16.91817 | 34835 ft | 455 kts | 128° |
| 2026-04-30 21:17 | 44.85526 | 16.95237 | 34215 ft | 454 kts | 128° |
| 2026-04-30 21:18 | 44.83750 | 16.98225 | 33585 ft | 454 kts | 128° |
| 2026-04-30 21:18 | 44.81764 | 17.01571 | 32849 ft | 454 kts | 128° |
| 2026-04-30 21:18 | 44.79714 | 17.05023 | 32119 ft | 453 kts | 128° |
| 2026-04-30 21:18 | 44.77716 | 17.08387 | 31888 ft | 441 kts | 129° |
| 2026-04-30 21:19 | 44.75775 | 17.11646 | 31757 ft | 428 kts | 129° |
| 2026-04-30 21:19 | 44.73888 | 17.14810 | 31496 ft | 419 kts | 129° |
| 2026-04-30 21:19 | 44.72029 | 17.17932 | 31103 ft | 413 kts | 129° |
| 2026-04-30 21:19 | 44.70194 | 17.21010 | 30684 ft | 410 kts | 129° |
| 2026-04-30 21:20 | 44.68410 | 17.24003 | 30274 ft | 406 kts | 129° |
| 2026-04-30 21:20 | 44.66603 | 17.27030 | 29795 ft | 403 kts | 129° |
| 2026-04-30 21:20 | 44.64807 | 17.30032 | 29334 ft | 400 kts | 129° |
| 2026-04-30 21:20 | 44.63023 | 17.33008 | 28896 ft | 397 kts | 129° |
| 2026-04-30 21:21 | 44.61252 | 17.35959 | 28461 ft | 394 kts | 129° |
| 2026-04-30 21:21 | 44.59491 | 17.38888 | 28030 ft | 391 kts | 129° |
| 2026-04-30 21:21 | 44.56005 | 17.44674 | 27161 ft | 386 kts | 129° |
| 2026-04-30 21:22 | 44.54279 | 17.47535 | 26727 ft | 383 kts | 129° |
| 2026-04-30 21:22 | 44.49178 | 17.55995 | 25416 ft | 375 kts | 129° |
| 2026-04-30 21:23 | 44.47499 | 17.58772 | 24974 ft | 372 kts | 129° |
| 2026-04-30 21:23 | 44.45832 | 17.61524 | 24551 ft | 369 kts | 129° |
| 2026-04-30 21:23 | 44.42529 | 17.66960 | 23594 ft | 365 kts | 129° |
| 2026-04-30 21:24 | 44.40853 | 17.69722 | 22489 ft | 379 kts | 129° |
| 2026-04-30 21:24 | 44.39113 | 17.72588 | 21383 ft | 394 kts | 129° |
| 2026-04-30 21:24 | 44.37308 | 17.75555 | 20266 ft | 407 kts | 129° |
| 2026-04-30 21:24 | 44.35441 | 17.78604 | 19184 ft | 418 kts | 129° |
| 2026-04-30 21:25 | 44.31576 | 17.84783 | 17015 ft | 429 kts | 130° |
| 2026-04-30 21:25 | 44.29601 | 17.87911 | 16130 ft | 427 kts | 130° |
| 2026-04-30 21:25 | 44.27641 | 17.91007 | 15369 ft | 423 kts | 130° |
| 2026-04-30 21:26 | 44.23788 | 17.97100 | 13981 ft | 415 kts | 129° |
| 2026-04-30 21:26 | 44.21868 | 18.00145 | 13312 ft | 410 kts | 129° |
| 2026-04-30 21:27 | 44.18133 | 18.06149 | 12381 ft | 405 kts | 128° |
| 2026-04-30 21:27 | 44.16354 | 18.09070 | 12247 ft | 383 kts | 128° |
| 2026-04-30 21:27 | 44.14611 | 18.11657 | 12156 ft | 352 kts | 140° |
| 2026-04-30 21:28 | 44.10300 | 18.12892 | 11796 ft | 313 kts | 198° |
| 2026-04-30 21:28 | 44.08400 | 18.11501 | 11287 ft | 306 kts | 213° |
| 2026-04-30 21:28 | 44.04810 | 18.08845 | 10301 ft | 277 kts | 203° |
| 2026-04-30 21:29 | 44.03053 | 18.07851 | 9747 ft | 271 kts | 199° |
| 2026-04-30 21:29 | 43.97578 | 18.05926 | 7598 ft | 269 kts | 186° |
| 2026-04-30 21:30 | 43.93964 | 18.05547 | 6203 ft | 251 kts | 169° |
| 2026-04-30 21:31 | 43.90981 | 18.10314 | 4400 ft | 217 kts | 114° |
| 2026-04-30 21:31 | 43.89705 | 18.13719 | 4308 ft | 187 kts | 113° |
| 2026-04-30 21:32 | 43.88500 | 18.16964 | 4234 ft | 194 kts | 113° |
| 2026-04-30 21:32 | 43.87880 | 18.18630 | 3976 ft | 195 kts | 114° |
| 2026-04-30 21:32 | 43.87263 | 18.20282 | 3683 ft | 192 kts | 115° |
| 2026-04-30 21:32 | 43.86665 | 18.21884 | 3370 ft | 183 kts | 115° |
| 2026-04-30 21:33 | 43.86094 | 18.23414 | 3102 ft | 175 kts | 115° |
| 2026-04-30 21:33 | 43.85065 | 18.26170 | 2684 ft | 150 kts | 114° |
| 2026-04-30 21:33 | 43.84588 | 18.27447 | 2480 ft | 145 kts | 116° |
| 2026-04-30 21:34 | 43.84133 | 18.28669 | 2268 ft | 141 kts | 116° |
| 2026-04-30 21:34 | 43.83243 | 18.31067 | 1801 ft | 138 kts | 118° |
| 2026-04-30 21:34 | 43.82801 | 18.32239 | 1680 ft | 131 kts | 119° |
| 2026-04-30 21:35 | 43.82440 | 18.33201 | 1683 ft | 90 kts | 117° |
| 2026-04-30 21:35 | 43.82228 | 18.33765 | 1695 ft | 47 kts | 117° |
| 2026-04-30 21:35 | 43.82088 | 18.34137 | 1701 ft | 41 kts | 118° |
| 2026-04-30 21:35 | 43.81985 | 18.34407 | 1706 ft | 24 kts | 117° |
| 2026-04-30 21:36 | 43.81946 | 18.34558 | 1710 ft | 12 kts | 76° |
| 2026-04-30 21:36 | 43.82008 | 18.34618 | 1712 ft | 12 kts | 12° |
| 2026-04-30 21:37 | 43.82221 | 18.34261 | 1703 ft | 22 kts | 297° |
| 2026-04-30 21:37 | 43.82297 | 18.34060 | 1698 ft | 25 kts | 296° |
| 2026-04-30 21:37 | 43.82380 | 18.33836 | 1695 ft | 26 kts | 297° |
| 2026-04-30 21:37 | 43.82450 | 18.33648 | 1690 ft | 22 kts | 296° |
| 2026-04-30 21:38 | 43.82520 | 18.33465 | 1686 ft | 13 kts | 296° |
| 2026-04-30 21:38 | 43.82569 | 18.33390 | 1679 ft | 11 kts | 17° |
| 2026-04-30 21:38 | 43.82600 | 18.33422 | 1680 ft | 0 kts | 35° |